sensor_id;sensor_type;location;lat;lon;timestamp;temperature;humidity
14093;DHT22;7123;49.468;10.992;2023-08-06T00:01:27;16.10;99.90
14093;DHT22;7123;49.468;10.992;2023-08-06T00:03:54;16.10;99.90
14093;DHT22;7123;49.468;10.992;2023-08-06T00:06:21;16.20;99.90
14093;DHT22;7123;49.468;10.992;2023-08-06T00:08:48;16.10;99.90
14093;DHT22;7123;49.468;10.992;2023-08-06T00:18:37;16.00;99.90
14093;DHT22;7123;49.468;10.992;2023-08-06T00:21:05;16.00;99.90
14093;DHT22;7123;49.468;10.992;2023-08-06T00:23:31;16.10;99.90
14093;DHT22;7123;49.468;10.992;2023-08-06T00:25:58;16.10;99.90
14093;DHT22;7123;49.468;10.992;2023-08-06T00:28:25;16.20;99.90
14093;DHT22;7123;49.468;10.992;2023-08-06T00:30:56;16.30;99.90
14093;DHT22;7123;49.468;10.992;2023-08-06T00:33:24;16.40;99.90
14093;DHT22;7123;49.468;10.992;2023-08-06T00:35:51;16.70;99.90
14093;DHT22;7123;49.468;10.992;2023-08-06T00:38:18;16.90;99.90
14093;DHT22;7123;49.468;10.992;2023-08-06T00:40:45;17.10;99.90
14093;DHT22;7123;49.468;10.992;2023-08-06T00:43:12;17.40;99.90
14093;DHT22;7123;49.468;10.992;2023-08-06T00:45:39;17.60;99.90
14093;DHT22;7123;49.468;10.992;2023-08-06T00:48:06;17.80;99.90
14093;DHT22;7123;49.468;10.992;2023-08-06T00:57:55;17.70;99.90
14093;DHT22;7123;49.468;10.992;2023-08-06T01:00:24;17.40;99.90
14093;DHT22;7123;49.468;10.992;2023-08-06T01:02:51;17.20;99.90
14093;DHT22;7123;49.468;10.992;2023-08-06T01:05:20;17.10;99.90
14093;DHT22;7123;49.468;10.992;2023-08-06T01:08:15;17.20;99.90
14093;DHT22;7123;49.468;10.992;2023-08-06T01:13:47;17.10;99.90
14093;DHT22;7123;49.468;10.992;2023-08-06T01:16:19;17.00;99.90
14093;DHT22;7123;49.468;10.992;2023-08-06T01:18:47;17.10;99.90
14093;DHT22;7123;49.468;10.992;2023-08-06T01:21:16;17.10;99.90
14093;DHT22;7123;49.468;10.992;2023-08-06T01:23:43;16.90;99.90
14093;DHT22;7123;49.468;10.992;2023-08-06T01:26:29;16.70;99.90
14093;DHT22;7123;49.468;10.992;2023-08-06T01:29:17;16.60;99.90
14093;DHT22;7123;49.468;10.992;2023-08-06T01:31:48;16.50;99.90
14093;DHT22;7123;49.468;10.992;2023-08-06T01:34:21;16.50;99.90
14093;DHT22;7123;49.468;10.992;2023-08-06T01:36:48;16.40;99.90
14093;DHT22;7123;49.468;10.992;2023-08-06T01:39:16;16.40;99.90
14093;DHT22;7123;49.468;10.992;2023-08-06T01:41:42;16.50;99.90
14093;DHT22;7123;49.468;10.992;2023-08-06T01:44:09;16.60;99.90
14093;DHT22;7123;49.468;10.992;2023-08-06T01:46:36;16.80;99.90
14093;DHT22;7123;49.468;10.992;2023-08-06T01:49:03;17.00;99.90
14093;DHT22;7123;49.468;10.992;2023-08-06T01:51:30;17.20;99.90
14093;DHT22;7123;49.468;10.992;2023-08-06T01:53:57;17.40;99.90
14093;DHT22;7123;49.468;10.992;2023-08-06T01:56:23;17.40;99.90
14093;DHT22;7123;49.468;10.992;2023-08-06T01:58:50;17.50;99.90
14093;DHT22;7123;49.468;10.992;2023-08-06T02:01:17;17.50;99.90
14093;DHT22;7123;49.468;10.992;2023-08-06T02:03:44;17.30;99.90
14093;DHT22;7123;49.468;10.992;2023-08-06T02:06:11;17.30;99.90
14093;DHT22;7123;49.468;10.992;2023-08-06T02:08:38;17.30;99.90
14093;DHT22;7123;49.468;10.992;2023-08-06T02:11:06;17.30;99.90
14093;DHT22;7123;49.468;10.992;2023-08-06T02:13:32;17.20;99.90
14093;DHT22;7123;49.468;10.992;2023-08-06T02:15:59;17.10;99.90
14093;DHT22;7123;49.468;10.992;2023-08-06T02:18:26;17.10;99.90
14093;DHT22;7123;49.468;10.992;2023-08-06T02:20:57;17.30;99.90
14093;DHT22;7123;49.468;10.992;2023-08-06T02:23:24;17.50;99.90
14093;DHT22;7123;49.468;10.992;2023-08-06T02:26:01;17.50;99.90
14093;DHT22;7123;49.468;10.992;2023-08-06T02:35:50;17.20;99.90
14093;DHT22;7123;49.468;10.992;2023-08-06T02:38:17;17.20;99.90
14093;DHT22;7123;49.468;10.992;2023-08-06T02:40:45;17.00;99.90
14093;DHT22;7123;49.468;10.992;2023-08-06T02:43:13;17.00;99.90
14093;DHT22;7123;49.468;10.992;2023-08-06T02:45:40;17.10;99.90
14093;DHT22;7123;49.468;10.992;2023-08-06T02:48:07;17.40;99.90
14093;DHT22;7123;49.468;10.992;2023-08-06T02:50:41;17.50;99.90
14093;DHT22;7123;49.468;10.992;2023-08-06T02:53:08;17.60;99.90
14093;DHT22;7123;49.468;10.992;2023-08-06T02:55:35;17.70;99.90
14093;DHT22;7123;49.468;10.992;2023-08-06T02:58:02;17.80;99.90
14093;DHT22;7123;49.468;10.992;2023-08-06T03:00:29;17.90;99.90
14093;DHT22;7123;49.468;10.992;2023-08-06T03:02:56;17.90;99.90
14093;DHT22;7123;49.468;10.992;2023-08-06T03:05:23;17.70;99.90
14093;DHT22;7123;49.468;10.992;2023-08-06T03:07:50;17.70;99.90
14093;DHT22;7123;49.468;10.992;2023-08-06T03:10:17;17.80;99.90
14093;DHT22;7123;49.468;10.992;2023-08-06T03:12:44;17.90;99.90
14093;DHT22;7123;49.468;10.992;2023-08-06T03:15:10;17.90;99.90
14093;DHT22;7123;49.468;10.992;2023-08-06T03:17:37;18.00;99.90
14093;DHT22;7123;49.468;10.992;2023-08-06T03:20:05;18.10;99.90
14093;DHT22;7123;49.468;10.992;2023-08-06T03:22:32;18.20;99.90
14093;DHT22;7123;49.468;10.992;2023-08-06T03:24:59;18.30;99.90
14093;DHT22;7123;49.468;10.992;2023-08-06T03:27:27;18.30;99.90
14093;DHT22;7123;49.468;10.992;2023-08-06T03:29:54;18.40;99.90
14093;DHT22;7123;49.468;10.992;2023-08-06T03:32:21;18.40;99.90
14093;DHT22;7123;49.468;10.992;2023-08-06T03:34:47;18.40;99.90
14093;DHT22;7123;49.468;10.992;2023-08-06T03:37:14;18.50;99.90
14093;DHT22;7123;49.468;10.992;2023-08-06T03:39:41;18.50;99.90
14093;DHT22;7123;49.468;10.992;2023-08-06T03:42:11;18.50;99.90
14093;DHT22;7123;49.468;10.992;2023-08-06T03:44:37;18.60;99.90
14093;DHT22;7123;49.468;10.992;2023-08-06T03:47:04;18.50;99.90
14093;DHT22;7123;49.468;10.992;2023-08-06T03:49:31;18.50;99.90
14093;DHT22;7123;49.468;10.992;2023-08-06T03:51:58;18.50;99.90
14093;DHT22;7123;49.468;10.992;2023-08-06T03:54:25;18.50;99.90
14093;DHT22;7123;49.468;10.992;2023-08-06T03:56:51;18.50;99.90
14093;DHT22;7123;49.468;10.992;2023-08-06T03:59:18;18.50;99.90
14093;DHT22;7123;49.468;10.992;2023-08-06T04:01:45;18.50;99.90
14093;DHT22;7123;49.468;10.992;2023-08-06T04:04:12;18.50;99.90
14093;DHT22;7123;49.468;10.992;2023-08-06T04:06:39;18.50;99.90
14093;DHT22;7123;49.468;10.992;2023-08-06T04:09:05;18.40;99.90
14093;DHT22;7123;49.468;10.992;2023-08-06T04:11:32;18.40;99.90
14093;DHT22;7123;49.468;10.992;2023-08-06T04:13:59;18.40;99.90
14093;DHT22;7123;49.468;10.992;2023-08-06T04:16:26;18.40;99.90
14093;DHT22;7123;49.468;10.992;2023-08-06T04:18:53;18.40;99.90
14093;DHT22;7123;49.468;10.992;2023-08-06T04:21:22;18.50;99.90
14093;DHT22;7123;49.468;10.992;2023-08-06T04:23:48;18.40;99.90
14093;DHT22;7123;49.468;10.992;2023-08-06T04:26:15;18.40;99.90
14093;DHT22;7123;49.468;10.992;2023-08-06T04:28:42;18.40;99.90
14093;DHT22;7123;49.468;10.992;2023-08-06T04:31:09;18.40;99.90
14093;DHT22;7123;49.468;10.992;2023-08-06T04:33:36;18.40;99.90
14093;DHT22;7123;49.468;10.992;2023-08-06T04:36:03;18.40;99.90
14093;DHT22;7123;49.468;10.992;2023-08-06T04:38:30;18.40;99.90
14093;DHT22;7123;49.468;10.992;2023-08-06T04:40:57;18.40;99.90
14093;DHT22;7123;49.468;10.992;2023-08-06T04:43:24;18.40;99.90
14093;DHT22;7123;49.468;10.992;2023-08-06T04:45:53;18.40;99.90
14093;DHT22;7123;49.468;10.992;2023-08-06T04:48:21;18.40;99.90
14093;DHT22;7123;49.468;10.992;2023-08-06T04:50:49;18.30;99.90
14093;DHT22;7123;49.468;10.992;2023-08-06T04:53:16;18.40;99.90
14093;DHT22;7123;49.468;10.992;2023-08-06T04:55:43;18.30;99.90
14093;DHT22;7123;49.468;10.992;2023-08-06T04:58:10;18.40;99.90
14093;DHT22;7123;49.468;10.992;2023-08-06T05:00:37;18.40;99.90
14093;DHT22;7123;49.468;10.992;2023-08-06T05:03:05;18.40;99.90
14093;DHT22;7123;49.468;10.992;2023-08-06T05:05:32;18.40;99.90
14093;DHT22;7123;49.468;10.992;2023-08-06T05:07:59;18.40;99.90
14093;DHT22;7123;49.468;10.992;2023-08-06T05:10:26;18.40;99.90
14093;DHT22;7123;49.468;10.992;2023-08-06T05:12:53;18.40;99.90
14093;DHT22;7123;49.468;10.992;2023-08-06T05:15:20;18.40;99.90
14093;DHT22;7123;49.468;10.992;2023-08-06T05:17:47;18.40;99.90
14093;DHT22;7123;49.468;10.992;2023-08-06T05:20:14;18.40;99.90
14093;DHT22;7123;49.468;10.992;2023-08-06T05:22:41;18.40;99.90
14093;DHT22;7123;49.468;10.992;2023-08-06T05:25:08;18.50;99.90
14093;DHT22;7123;49.468;10.992;2023-08-06T05:27:35;18.40;99.90
14093;DHT22;7123;49.468;10.992;2023-08-06T05:30:05;18.50;99.90
14093;DHT22;7123;49.468;10.992;2023-08-06T05:32:32;18.50;99.90
14093;DHT22;7123;49.468;10.992;2023-08-06T05:34:59;18.50;99.90
14093;DHT22;7123;49.468;10.992;2023-08-06T05:37:26;18.50;99.90
14093;DHT22;7123;49.468;10.992;2023-08-06T05:39:52;18.50;99.90
14093;DHT22;7123;49.468;10.992;2023-08-06T05:42:19;18.50;99.90
14093;DHT22;7123;49.468;10.992;2023-08-06T05:44:46;18.50;99.90
14093;DHT22;7123;49.468;10.992;2023-08-06T05:47:13;18.50;99.90
14093;DHT22;7123;49.468;10.992;2023-08-06T05:49:40;18.50;99.90
14093;DHT22;7123;49.468;10.992;2023-08-06T05:52:06;18.50;99.90
14093;DHT22;7123;49.468;10.992;2023-08-06T05:54:35;18.60;99.90
14093;DHT22;7123;49.468;10.992;2023-08-06T05:57:01;18.60;99.90
14093;DHT22;7123;49.468;10.992;2023-08-06T05:59:28;18.70;99.90
14093;DHT22;7123;49.468;10.992;2023-08-06T06:01:55;18.70;99.90
14093;DHT22;7123;49.468;10.992;2023-08-06T06:04:22;18.70;99.90
14093;DHT22;7123;49.468;10.992;2023-08-06T06:06:49;18.80;99.90
14093;DHT22;7123;49.468;10.992;2023-08-06T06:09:15;18.80;99.90
14093;DHT22;7123;49.468;10.992;2023-08-06T06:11:42;18.80;99.90
14093;DHT22;7123;49.468;10.992;2023-08-06T06:14:09;18.90;99.90
14093;DHT22;7123;49.468;10.992;2023-08-06T06:16:36;18.90;99.90
14093;DHT22;7123;49.468;10.992;2023-08-06T06:19:03;18.50;99.90
14093;DHT22;7123;49.468;10.992;2023-08-06T06:21:29;18.40;99.90
14093;DHT22;7123;49.468;10.992;2023-08-06T06:23:56;18.30;99.90
14093;DHT22;7123;49.468;10.992;2023-08-06T06:26:23;18.20;99.90
14093;DHT22;7123;49.468;10.992;2023-08-06T06:28:50;18.20;99.90
14093;DHT22;7123;49.468;10.992;2023-08-06T06:31:17;18.10;99.90
14093;DHT22;7123;49.468;10.992;2023-08-06T06:33:44;18.10;99.90
14093;DHT22;7123;49.468;10.992;2023-08-06T06:36:10;18.10;99.90
14093;DHT22;7123;49.468;10.992;2023-08-06T06:38:38;18.00;99.90
14093;DHT22;7123;49.468;10.992;2023-08-06T06:41:05;18.00;99.90
14093;DHT22;7123;49.468;10.992;2023-08-06T06:43:32;17.90;99.90
14093;DHT22;7123;49.468;10.992;2023-08-06T06:46:00;17.90;99.90
14093;DHT22;7123;49.468;10.992;2023-08-06T06:48:28;17.90;99.90
14093;DHT22;7123;49.468;10.992;2023-08-06T06:50:55;17.90;99.90
14093;DHT22;7123;49.468;10.992;2023-08-06T06:53:22;17.90;99.90
14093;DHT22;7123;49.468;10.992;2023-08-06T06:56:03;17.90;99.90
14093;DHT22;7123;49.468;10.992;2023-08-06T06:58:31;17.90;99.90
14093;DHT22;7123;49.468;10.992;2023-08-06T07:00:58;17.90;99.90
14093;DHT22;7123;49.468;10.992;2023-08-06T07:03:25;18.00;99.90
14093;DHT22;7123;49.468;10.992;2023-08-06T07:05:57;18.00;99.90
14093;DHT22;7123;49.468;10.992;2023-08-06T07:08:25;17.90;99.90
14093;DHT22;7123;49.468;10.992;2023-08-06T07:11:02;17.90;99.90
14093;DHT22;7123;49.468;10.992;2023-08-06T07:13:30;17.90;99.90
14093;DHT22;7123;49.468;10.992;2023-08-06T07:15:56;17.80;99.90
14093;DHT22;7123;49.468;10.992;2023-08-06T07:18:24;17.70;99.90
14093;DHT22;7123;49.468;10.992;2023-08-06T07:20:52;17.60;99.90
14093;DHT22;7123;49.468;10.992;2023-08-06T07:23:24;17.00;99.90
14093;DHT22;7123;49.468;10.992;2023-08-06T07:25:52;16.70;99.90
14093;DHT22;7123;49.468;10.992;2023-08-06T07:28:19;16.50;99.90
14093;DHT22;7123;49.468;10.992;2023-08-06T07:30:46;16.40;99.90
14093;DHT22;7123;49.468;10.992;2023-08-06T07:33:13;16.50;99.90
14093;DHT22;7123;49.468;10.992;2023-08-06T07:35:40;16.50;99.90
14093;DHT22;7123;49.468;10.992;2023-08-06T07:38:07;16.60;99.90
14093;DHT22;7123;49.468;10.992;2023-08-06T07:40:36;16.70;99.90
14093;DHT22;7123;49.468;10.992;2023-08-06T07:43:03;16.90;99.90
14093;DHT22;7123;49.468;10.992;2023-08-06T07:45:34;17.10;99.90
14093;DHT22;7123;49.468;10.992;2023-08-06T07:48:02;17.30;99.90
14093;DHT22;7123;49.468;10.992;2023-08-06T07:50:29;17.50;99.90
14093;DHT22;7123;49.468;10.992;2023-08-06T07:52:56;17.10;99.90
14093;DHT22;7123;49.468;10.992;2023-08-06T07:55:23;16.90;99.90
14093;DHT22;7123;49.468;10.992;2023-08-06T07:57:50;16.80;99.90
14093;DHT22;7123;49.468;10.992;2023-08-06T08:00:16;16.60;99.90
14093;DHT22;7123;49.468;10.992;2023-08-06T08:02:43;16.70;99.90
14093;DHT22;7123;49.468;10.992;2023-08-06T08:05:10;16.70;99.90
14093;DHT22;7123;49.468;10.992;2023-08-06T08:07:38;16.60;99.90
14093;DHT22;7123;49.468;10.992;2023-08-06T08:10:06;16.60;99.90
14093;DHT22;7123;49.468;10.992;2023-08-06T08:19:54;16.00;99.90
14093;DHT22;7123;49.468;10.992;2023-08-06T08:22:21;16.00;99.90
14093;DHT22;7123;49.468;10.992;2023-08-06T08:24:49;15.90;99.90
14093;DHT22;7123;49.468;10.992;2023-08-06T08:27:16;15.90;99.90
14093;DHT22;7123;49.468;10.992;2023-08-06T08:29:43;15.90;99.90
14093;DHT22;7123;49.468;10.992;2023-08-06T08:32:09;15.80;99.90
14093;DHT22;7123;49.468;10.992;2023-08-06T08:34:36;15.80;99.90
14093;DHT22;7123;49.468;10.992;2023-08-06T08:37:03;15.80;99.90
14093;DHT22;7123;49.468;10.992;2023-08-06T08:39:32;15.90;99.90
14093;DHT22;7123;49.468;10.992;2023-08-06T08:41:59;15.90;99.90
14093;DHT22;7123;49.468;10.992;2023-08-06T08:44:26;16.10;99.90
14093;DHT22;7123;49.468;10.992;2023-08-06T08:46:55;16.00;99.90
14093;DHT22;7123;49.468;10.992;2023-08-06T08:49:24;16.10;99.90
14093;DHT22;7123;49.468;10.992;2023-08-06T08:51:54;15.90;99.90
14093;DHT22;7123;49.468;10.992;2023-08-06T08:54:23;16.10;99.90
14093;DHT22;7123;49.468;10.992;2023-08-06T08:56:50;16.10;99.90
14093;DHT22;7123;49.468;10.992;2023-08-06T08:59:19;16.10;99.90
14093;DHT22;7123;49.468;10.992;2023-08-06T09:01:48;16.10;99.90
14093;DHT22;7123;49.468;10.992;2023-08-06T09:04:19;16.10;99.90
14093;DHT22;7123;49.468;10.992;2023-08-06T09:06:50;16.00;99.90
14093;DHT22;7123;49.468;10.992;2023-08-06T09:09:25;15.90;99.90
14093;DHT22;7123;49.468;10.992;2023-08-06T09:11:53;15.90;99.90
14093;DHT22;7123;49.468;10.992;2023-08-06T09:14:22;15.90;99.90
14093;DHT22;7123;49.468;10.992;2023-08-06T09:16:49;15.90;99.90
14093;DHT22;7123;49.468;10.992;2023-08-06T09:20:12;15.90;99.90
14093;DHT22;7123;49.468;10.992;2023-08-06T09:22:39;16.00;99.90
14093;DHT22;7123;49.468;10.992;2023-08-06T09:25:07;16.10;99.90
14093;DHT22;7123;49.468;10.992;2023-08-06T09:27:37;16.10;99.90
14093;DHT22;7123;49.468;10.992;2023-08-06T09:30:11;16.20;99.90
14093;DHT22;7123;49.468;10.992;2023-08-06T09:32:48;16.50;99.90
14093;DHT22;7123;49.468;10.992;2023-08-06T09:35:18;16.40;99.90
14093;DHT22;7123;49.468;10.992;2023-08-06T09:37:47;16.30;99.90
14093;DHT22;7123;49.468;10.992;2023-08-06T09:40:31;16.30;99.90
14093;DHT22;7123;49.468;10.992;2023-08-06T09:43:00;16.20;99.90
14093;DHT22;7123;49.468;10.992;2023-08-06T09:45:33;16.10;99.90
14093;DHT22;7123;49.468;10.992;2023-08-06T09:48:05;16.10;99.90
14093;DHT22;7123;49.468;10.992;2023-08-06T09:50:35;16.30;99.90
14093;DHT22;7123;49.468;10.992;2023-08-06T09:53:08;16.30;99.90
14093;DHT22;7123;49.468;10.992;2023-08-06T09:55:37;16.30;99.90
14093;DHT22;7123;49.468;10.992;2023-08-06T09:58:04;16.30;99.90
14093;DHT22;7123;49.468;10.992;2023-08-06T10:00:33;16.30;99.90
14093;DHT22;7123;49.468;10.992;2023-08-06T10:03:07;16.30;99.90
14093;DHT22;7123;49.468;10.992;2023-08-06T10:05:34;16.30;99.90
14093;DHT22;7123;49.468;10.992;2023-08-06T10:08:03;16.40;99.90
14093;DHT22;7123;49.468;10.992;2023-08-06T10:10:33;16.50;99.90
14093;DHT22;7123;49.468;10.992;2023-08-06T10:13:01;16.70;99.90
14093;DHT22;7123;49.468;10.992;2023-08-06T10:15:31;16.90;99.90
14093;DHT22;7123;49.468;10.992;2023-08-06T10:18:01;16.90;99.90
14093;DHT22;7123;49.468;10.992;2023-08-06T10:20:33;16.90;99.90
14093;DHT22;7123;49.468;10.992;2023-08-06T10:23:02;16.90;99.90
14093;DHT22;7123;49.468;10.992;2023-08-06T10:25:39;17.10;99.90
14093;DHT22;7123;49.468;10.992;2023-08-06T10:28:11;17.20;99.90
14093;DHT22;7123;49.468;10.992;2023-08-06T10:30:46;17.20;99.90
14093;DHT22;7123;49.468;10.992;2023-08-06T10:33:13;17.20;99.90
14093;DHT22;7123;49.468;10.992;2023-08-06T10:35:46;17.10;99.90
14093;DHT22;7123;49.468;10.992;2023-08-06T10:38:22;17.10;99.90
14093;DHT22;7123;49.468;10.992;2023-08-06T10:43:29;17.10;99.90
14093;DHT22;7123;49.468;10.992;2023-08-06T10:46:00;17.20;99.90
14093;DHT22;7123;49.468;10.992;2023-08-06T10:48:35;17.40;99.90
14093;DHT22;7123;49.468;10.992;2023-08-06T10:51:06;17.40;99.90
14093;DHT22;7123;49.468;10.992;2023-08-06T10:53:32;17.30;99.90
14093;DHT22;7123;49.468;10.992;2023-08-06T10:56:01;17.40;99.90
14093;DHT22;7123;49.468;10.992;2023-08-06T10:58:32;17.40;99.90
14093;DHT22;7123;49.468;10.992;2023-08-06T11:01:00;17.50;99.90
14093;DHT22;7123;49.468;10.992;2023-08-06T11:03:27;17.50;99.90
14093;DHT22;7123;49.468;10.992;2023-08-06T11:05:55;17.60;99.90
14093;DHT22;7123;49.468;10.992;2023-08-06T11:08:29;17.60;99.90
14093;DHT22;7123;49.468;10.992;2023-08-06T11:11:11;17.70;99.90
14093;DHT22;7123;49.468;10.992;2023-08-06T11:13:49;17.80;99.90
14093;DHT22;7123;49.468;10.992;2023-08-06T11:16:21;17.70;99.90
14093;DHT22;7123;49.468;10.992;2023-08-06T11:18:51;17.60;99.90
14093;DHT22;7123;49.468;10.992;2023-08-06T11:21:20;17.30;99.90
14093;DHT22;7123;49.468;10.992;2023-08-06T11:23:47;17.20;99.90
14093;DHT22;7123;49.468;10.992;2023-08-06T11:26:19;17.20;99.90
14093;DHT22;7123;49.468;10.992;2023-08-06T11:28:47;17.30;99.90
14093;DHT22;7123;49.468;10.992;2023-08-06T11:31:23;17.50;99.90
14093;DHT22;7123;49.468;10.992;2023-08-06T11:33:52;17.70;99.90
14093;DHT22;7123;49.468;10.992;2023-08-06T11:40:25;17.40;99.90
14093;DHT22;7123;49.468;10.992;2023-08-06T11:42:52;17.40;99.90
14093;DHT22;7123;49.468;10.992;2023-08-06T11:45:24;17.50;99.90
14093;DHT22;7123;49.468;10.992;2023-08-06T11:47:52;17.60;99.90
14093;DHT22;7123;49.468;10.992;2023-08-06T11:50:27;17.60;99.90
14093;DHT22;7123;49.468;10.992;2023-08-06T11:52:58;17.70;99.90
14093;DHT22;7123;49.468;10.992;2023-08-06T11:55:27;17.80;99.90
14093;DHT22;7123;49.468;10.992;2023-08-06T11:57:55;17.80;99.90
14093;DHT22;7123;49.468;10.992;2023-08-06T12:00:24;17.80;99.90
14093;DHT22;7123;49.468;10.992;2023-08-06T12:02:52;17.80;99.90
14093;DHT22;7123;49.468;10.992;2023-08-06T12:12:42;16.40;99.90
14093;DHT22;7123;49.468;10.992;2023-08-06T12:15:10;16.20;99.90
14093;DHT22;7123;49.468;10.992;2023-08-06T12:17:37;16.20;99.90
14093;DHT22;7123;49.468;10.992;2023-08-06T12:20:06;16.10;99.90
14093;DHT22;7123;49.468;10.992;2023-08-06T12:22:34;16.10;99.90
14093;DHT22;7123;49.468;10.992;2023-08-06T12:25:08;16.20;99.90
14093;DHT22;7123;49.468;10.992;2023-08-06T12:27:36;16.40;99.90
14093;DHT22;7123;49.468;10.992;2023-08-06T12:30:05;16.70;99.90
14093;DHT22;7123;49.468;10.992;2023-08-06T12:32:34;16.90;99.90
14093;DHT22;7123;49.468;10.992;2023-08-06T12:35:02;17.20;99.90
14093;DHT22;7123;49.468;10.992;2023-08-06T12:37:29;17.30;99.90
14093;DHT22;7123;49.468;10.992;2023-08-06T12:39:56;17.50;99.90
14093;DHT22;7123;49.468;10.992;2023-08-06T12:42:23;17.50;99.90
14093;DHT22;7123;49.468;10.992;2023-08-06T12:44:51;17.50;99.90
14093;DHT22;7123;49.468;10.992;2023-08-06T12:47:18;17.40;99.90
14093;DHT22;7123;49.468;10.992;2023-08-06T12:49:45;17.20;99.90
14093;DHT22;7123;49.468;10.992;2023-08-06T12:52:12;17.30;99.90
14093;DHT22;7123;49.468;10.992;2023-08-06T12:54:42;17.40;99.90
14093;DHT22;7123;49.468;10.992;2023-08-06T12:57:10;17.50;99.90
14093;DHT22;7123;49.468;10.992;2023-08-06T12:59:37;17.50;99.90
14093;DHT22;7123;49.468;10.992;2023-08-06T13:02:04;17.60;99.90
14093;DHT22;7123;49.468;10.992;2023-08-06T13:04:31;17.70;99.90
14093;DHT22;7123;49.468;10.992;2023-08-06T13:06:58;17.70;99.90
14093;DHT22;7123;49.468;10.992;2023-08-06T13:09:25;17.10;99.90
14093;DHT22;7123;49.468;10.992;2023-08-06T13:11:54;16.90;99.90
14093;DHT22;7123;49.468;10.992;2023-08-06T13:14:22;16.90;99.90
14093;DHT22;7123;49.468;10.992;2023-08-06T13:16:49;17.00;99.90
14093;DHT22;7123;49.468;10.992;2023-08-06T13:19:16;17.20;99.90
14093;DHT22;7123;49.468;10.992;2023-08-06T13:24:13;17.50;99.90
14093;DHT22;7123;49.468;10.992;2023-08-06T13:26:39;17.50;99.90
14093;DHT22;7123;49.468;10.992;2023-08-06T13:29:06;17.30;99.90
14093;DHT22;7123;49.468;10.992;2023-08-06T13:31:37;17.10;99.90
14093;DHT22;7123;49.468;10.992;2023-08-06T13:34:04;16.90;99.90
14093;DHT22;7123;49.468;10.992;2023-08-06T13:36:31;16.80;99.90
14093;DHT22;7123;49.468;10.992;2023-08-06T13:38:58;16.80;99.90
14093;DHT22;7123;49.468;10.992;2023-08-06T13:41:25;16.80;99.90
14093;DHT22;7123;49.468;10.992;2023-08-06T13:43:52;16.70;99.90
14093;DHT22;7123;49.468;10.992;2023-08-06T13:46:19;16.60;99.90
14093;DHT22;7123;49.468;10.992;2023-08-06T13:48:48;16.30;99.90
14093;DHT22;7123;49.468;10.992;2023-08-06T13:51:18;16.10;99.90
14093;DHT22;7123;49.468;10.992;2023-08-06T13:53:45;16.10;99.90
14093;DHT22;7123;49.468;10.992;2023-08-06T13:56:12;16.00;99.90
14093;DHT22;7123;49.468;10.992;2023-08-06T13:58:43;16.00;99.90
14093;DHT22;7123;49.468;10.992;2023-08-06T14:01:11;15.90;99.90
14093;DHT22;7123;49.468;10.992;2023-08-06T14:03:38;15.80;99.90
14093;DHT22;7123;49.468;10.992;2023-08-06T14:06:05;15.70;99.90
14093;DHT22;7123;49.468;10.992;2023-08-06T14:08:32;15.50;99.90
14093;DHT22;7123;49.468;10.992;2023-08-06T14:15:06;15.30;99.90
14093;DHT22;7123;49.468;10.992;2023-08-06T14:17:34;15.20;99.90
14093;DHT22;7123;49.468;10.992;2023-08-06T14:20:04;15.00;99.90
14093;DHT22;7123;49.468;10.992;2023-08-06T14:22:33;14.90;99.90
14093;DHT22;7123;49.468;10.992;2023-08-06T14:25:01;14.80;99.90
14093;DHT22;7123;49.468;10.992;2023-08-06T14:27:29;14.90;99.90
14093;DHT22;7123;49.468;10.992;2023-08-06T14:29:59;14.90;99.90
14093;DHT22;7123;49.468;10.992;2023-08-06T14:32:28;15.00;99.90
14093;DHT22;7123;49.468;10.992;2023-08-06T14:34:57;15.10;99.90
14093;DHT22;7123;49.468;10.992;2023-08-06T14:37:25;15.10;99.90
14093;DHT22;7123;49.468;10.992;2023-08-06T14:39:52;15.20;99.90
14093;DHT22;7123;49.468;10.992;2023-08-06T14:42:19;15.30;99.90
14093;DHT22;7123;49.468;10.992;2023-08-06T14:44:46;15.20;99.90
14093;DHT22;7123;49.468;10.992;2023-08-06T14:47:12;15.10;99.90
14093;DHT22;7123;49.468;10.992;2023-08-06T14:49:39;15.10;99.90
14093;DHT22;7123;49.468;10.992;2023-08-06T14:52:06;15.00;99.90
14093;DHT22;7123;49.468;10.992;2023-08-06T14:54:33;15.00;99.90
14093;DHT22;7123;49.468;10.992;2023-08-06T14:57:00;14.90;99.90
14093;DHT22;7123;49.468;10.992;2023-08-06T14:59:27;14.80;99.90
14093;DHT22;7123;49.468;10.992;2023-08-06T15:01:54;14.70;99.90
14093;DHT22;7123;49.468;10.992;2023-08-06T15:04:21;14.70;99.90
14093;DHT22;7123;49.468;10.992;2023-08-06T15:06:54;14.80;99.90
14093;DHT22;7123;49.468;10.992;2023-08-06T15:09:21;14.90;99.90
14093;DHT22;7123;49.468;10.992;2023-08-06T15:11:50;14.90;99.90
14093;DHT22;7123;49.468;10.992;2023-08-06T15:14:18;15.10;99.90
14093;DHT22;7123;49.468;10.992;2023-08-06T15:16:47;15.10;99.90
14093;DHT22;7123;49.468;10.992;2023-08-06T15:19:13;15.20;99.90
14093;DHT22;7123;49.468;10.992;2023-08-06T15:21:40;15.20;99.90
14093;DHT22;7123;49.468;10.992;2023-08-06T15:24:07;15.20;99.90
14093;DHT22;7123;49.468;10.992;2023-08-06T15:26:34;15.30;99.90
14093;DHT22;7123;49.468;10.992;2023-08-06T15:29:01;15.30;99.90
14093;DHT22;7123;49.468;10.992;2023-08-06T15:31:36;15.40;99.90
14093;DHT22;7123;49.468;10.992;2023-08-06T15:34:05;15.30;99.90
14093;DHT22;7123;49.468;10.992;2023-08-06T15:36:33;15.30;99.90
14093;DHT22;7123;49.468;10.992;2023-08-06T15:39:01;15.30;99.90
14093;DHT22;7123;49.468;10.992;2023-08-06T15:41:29;15.40;99.90
14093;DHT22;7123;49.468;10.992;2023-08-06T15:43:56;15.40;99.90
14093;DHT22;7123;49.468;10.992;2023-08-06T15:53:39;15.50;99.90
14093;DHT22;7123;49.468;10.992;2023-08-06T15:56:06;15.60;99.90
14093;DHT22;7123;49.468;10.992;2023-08-06T15:58:45;15.50;99.90
14093;DHT22;7123;49.468;10.992;2023-08-06T16:01:11;15.50;99.90
14093;DHT22;7123;49.468;10.992;2023-08-06T16:03:40;15.50;99.90
14093;DHT22;7123;49.468;10.992;2023-08-06T16:06:10;15.40;99.90
14093;DHT22;7123;49.468;10.992;2023-08-06T16:08:39;15.40;99.90
14093;DHT22;7123;49.468;10.992;2023-08-06T16:11:06;15.40;99.90
14093;DHT22;7123;49.468;10.992;2023-08-06T16:13:34;15.40;99.90
14093;DHT22;7123;49.468;10.992;2023-08-06T16:16:01;15.50;99.90
14093;DHT22;7123;49.468;10.992;2023-08-06T16:18:28;15.50;99.90
14093;DHT22;7123;49.468;10.992;2023-08-06T16:20:58;15.50;99.90
14093;DHT22;7123;49.468;10.992;2023-08-06T16:23:25;15.50;99.90
14093;DHT22;7123;49.468;10.992;2023-08-06T16:25:52;15.50;99.90
14093;DHT22;7123;49.468;10.992;2023-08-06T16:28:18;15.40;99.90
14093;DHT22;7123;49.468;10.992;2023-08-06T16:30:46;15.50;99.90
14093;DHT22;7123;49.468;10.992;2023-08-06T16:33:14;15.40;99.90
14093;DHT22;7123;49.468;10.992;2023-08-06T16:35:42;15.40;99.90
14093;DHT22;7123;49.468;10.992;2023-08-06T16:38:09;15.40;99.90